Time;durP1;ratioP1;P1;durP2;ratioP2;P2;SDS_P1;SDS_P2;PMS_P1;PMS_P2;Temp;Humidity;BMP_temperature;BMP_pressure;BME280_temperature;BME280_humidity;BME280_pressure;Samples;Min_cycle;Max_cycle;Signal;HPM_P1;HPM_P2
2023/01/18 00:01:04;;;;;;;5.15;3.70;;;;;;;1.45;75.07;95225.88;4989858;28;20486;-80
2023/01/18 00:03:32;;;;;;;6.95;4.32;;;;;;;1.61;75.19;95230.47;4987202;28;20034;-80
2023/01/18 00:06:00;;;;;;;6.72;3.83;;;;;;;1.71;74.56;95227.41;4989551;28;20470;-80
2023/01/18 00:08:31;;;;;;;5.72;3.75;;;;;;;1.84;74.24;95227.28;4989000;28;20033;-80
2023/01/18 00:11:14;;;;;;;6.85;3.67;;;;;;;1.91;74.39;95216.88;4988479;28;20034;-81
2023/01/18 00:13:40;;;;;;;6.47;3.42;;;;;;;1.94;74.60;95217.22;4989207;28;20033;-80
2023/01/18 00:16:10;;;;;;;4.88;3.38;;;;;;;1.97;73.73;95226.34;4989720;28;20498;-80
2023/01/18 00:18:36;;;;;;;4.73;3.33;;;;;;;2.02;73.22;95218.72;4988261;28;20066;-80
2023/01/18 00:21:05;;;;;;;4.88;3.65;;;;;;;2.09;72.84;95227.97;4989384;28;20564;-80
2023/01/18 00:23:31;;;;;;;4.78;3.22;;;;;;;2.12;72.92;95232.75;4989198;28;20100;-80
2023/01/18 00:26:03;;;;;;;6.60;3.80;;;;;;;2.15;72.74;95224.53;4989271;28;20084;-80
2023/01/18 00:28:29;;;;;;;5.70;3.65;;;;;;;2.20;72.71;95226.47;4988642;28;20046;-81
2023/01/18 00:30:54;;;;;;;6.00;3.85;;;;;;;2.27;72.99;95226.41;4988734;28;20042;-80
2023/01/18 00:33:20;;;;;;;5.65;3.72;;;;;;;2.27;72.73;95226.41;4989401;28;20038;-80
2023/01/18 00:36:01;;;;;;;5.13;3.78;;;;;;;2.19;72.53;95221.53;4988542;28;20034;-81
2023/01/18 00:38:28;;;;;;;5.30;3.95;;;;;;;2.03;72.86;95213.34;4987919;28;20052;-81
2023/01/18 00:40:54;;;;;;;6.10;4.15;;;;;;;1.98;73.42;95233.09;4989378;28;20100;-80
2023/01/18 00:43:38;;;;;;;6.30;4.18;;;;;;;1.90;74.17;95235.97;4989382;28;20494;-81
2023/01/18 00:46:13;;;;;;;5.05;3.88;;;;;;;1.98;74.56;95225.31;4988545;28;20093;-81
2023/01/18 00:48:40;;;;;;;7.03;4.20;;;;;;;2.06;74.52;95215.50;4987165;28;20541;-81
2023/01/18 00:51:09;;;;;;;7.38;4.35;;;;;;;2.06;74.08;95204.38;4987999;28;20148;-80
2023/01/18 00:53:36;;;;;;;5.72;4.07;;;;;;;2.09;75.17;95203.94;4989195;28;20061;-80
2023/01/18 00:56:07;;;;;;;6.75;4.40;;;;;;;2.07;74.59;95201.56;4971504;28;20038;-80
2023/01/18 00:58:33;;;;;;;10.70;4.90;;;;;;;1.75;75.47;95219.03;4989773;28;20053;-80
2023/01/18 01:00:59;;;;;;;7.90;5.30;;;;;;;1.51;76.81;95222.44;4988907;28;20109;-81
2023/01/18 01:03:24;;;;;;;6.45;4.40;;;;;;;1.65;77.24;95216.13;4986786;28;20452;-80
2023/01/18 01:08:34;;;;;;;8.50;5.80;;;;;;;1.42;78.07;95221.13;4992453;28;20040;-80
2023/01/18 01:11:11;;;;;;;7.53;4.95;;;;;;;1.41;78.72;95225.50;4992397;28;20042;-80
2023/01/18 01:27:19;;;;;;;8.68;4.90;;;;;;;1.56;76.66;95245.81;4992188;28;20052;-80
2023/01/18 01:29:45;;;;;;;8.95;5.35;;;;;;;1.79;77.28;95258.13;4989727;28;20034;-80
2023/01/18 01:32:11;;;;;;;7.75;4.70;;;;;;;1.91;76.57;95253.84;4992367;28;20069;-80
2023/01/18 01:34:36;;;;;;;9.70;5.63;;;;;;;1.96;75.43;95251.41;4992352;28;20046;-80
2023/01/18 01:37:03;;;;;;;9.77;5.25;;;;;;;2.01;74.58;95248.19;4991704;28;20473;-80
2023/01/18 01:39:29;;;;;;;7.53;5.05;;;;;;;2.06;74.64;95240.56;4991971;28;20528;-80
2023/01/18 01:41:54;;;;;;;8.30;4.95;;;;;;;2.17;74.63;95242.44;4992716;28;20030;-80
2023/01/18 01:44:20;;;;;;;10.15;5.30;;;;;;;2.21;73.62;95248.75;4992743;28;20064;-80
2023/01/18 01:47:05;;;;;;;8.55;5.00;;;;;;;2.18;73.10;95250.97;4990643;28;20036;-81
2023/01/18 01:49:44;;;;;;;8.32;4.57;;;;;;;2.04;73.81;95252.91;4991643;28;20506;-80
2023/01/18 01:52:18;;;;;;;7.30;4.95;;;;;;;1.85;73.96;95250.31;4991027;28;20041;-80
2023/01/18 01:55:03;;;;;;;6.88;4.88;;;;;;;1.83;75.43;95247.16;4992174;28;20109;-80
2023/01/18 01:58:00;;;;;;;8.57;5.22;;;;;;;1.93;75.23;95241.50;4991741;28;20113;-80
2023/01/18 02:00:26;;;;;;;8.00;5.00;;;;;;;1.97;74.39;95241.84;4990154;28;21125;-80
2023/01/18 02:03:06;;;;;;;8.43;4.93;;;;;;;1.88;74.38;95249.09;4989919;28;20112;-80
2023/01/18 02:05:41;;;;;;;8.80;4.97;;;;;;;2.03;75.12;95251.31;4991040;28;20045;-80
2023/01/18 02:08:12;;;;;;;7.28;4.90;;;;;;;2.18;75.19;95244.00;4990344;28;20034;-80
2023/01/18 02:10:38;;;;;;;7.97;4.80;;;;;;;2.16;73.93;95240.88;4991721;28;20515;-80
2023/01/18 02:13:08;;;;;;;9.45;5.10;;;;;;;1.93;73.74;95243.31;4991487;28;20030;-80
2023/01/18 02:16:03;;;;;;;8.63;5.07;;;;;;;1.68;75.67;95251.91;4991398;28;20051;-80
2023/01/18 02:18:45;;;;;;;9.77;5.72;;;;;;;1.64;76.02;95247.34;4989600;28;20072;-80
2023/01/18 02:21:23;;;;;;;6.07;4.78;;;;;;;1.67;76.13;95249.50;4990768;28;20498;-80
2023/01/18 02:24:10;;;;;;;8.18;4.70;;;;;;;1.82;76.83;95253.34;4990468;28;20057;-80
2023/01/18 02:27:05;;;;;;;10.02;5.03;;;;;;;1.94;76.23;95262.97;4991259;28;20498;-80
2023/01/18 02:30:04;;;;;;;8.48;5.05;;;;;;;1.97;75.70;95263.31;4990711;28;20124;-80
2023/01/18 02:33:00;;;;;;;9.38;5.35;;;;;;;2.00;75.74;95252.56;4964558;28;20172;-80
2023/01/18 02:35:50;;;;;;;6.90;4.75;;;;;;;1.77;75.94;95253.19;4973800;28;20046;-80
2023/01/18 02:38:25;;;;;;;6.60;4.70;;;;;;;1.54;77.25;95253.00;4990275;28;20031;-80
2023/01/18 02:46:29;;;;;;;6.22;4.15;;;;;;;1.31;78.04;95251.00;4990614;28;20637;-80
2023/01/18 02:47:08;;;;;;;8.65;4.90;;;;;;;1.26;79.94;95261.16;4989911;28;20032;-81
2023/01/18 02:49:34;;;;;;;7.43;5.05;;;;;;;1.17;80.75;95263.22;4991040;28;20499;-80
2023/01/18 02:52:07;;;;;;;8.50;5.22;;;;;;;1.09;81.07;95254.97;4990576;28;20036;-80
2023/01/18 02:54:39;;;;;;;9.93;5.28;;;;;;;1.04;81.58;95245.25;4990855;28;20034;-80
2023/01/18 02:57:13;;;;;;;9.77;5.32;;;;;;;1.05;82.50;95257.94;4990832;28;20050;-80
2023/01/18 02:59:49;;;;;;;8.52;5.60;;;;;;;1.04;82.61;95255.56;4990089;28;20057;-80
2023/01/18 03:02:19;;;;;;;7.55;5.00;;;;;;;1.04;82.83;95263.31;4986351;28;20505;-80
2023/01/18 03:04:54;;;;;;;7.25;5.28;;;;;;;1.03;83.14;95264.31;4990572;28;20038;-81
2023/01/18 03:07:34;;;;;;;6.60;4.78;;;;;;;1.11;83.21;95266.63;4991153;28;20054;-80
2023/01/18 03:10:05;;;;;;;6.78;5.05;;;;;;;1.14;83.24;95263.66;4990893;28;20043;-80
2023/01/18 03:12:52;;;;;;;;;;;;;;;1.20;82.67;95262.00;4990494;28;20073;-80
2023/01/18 03:15:50;;;;;;;7.10;4.70;;;;;;;1.19;82.89;95256.03;4990480;28;19924;-80
2023/01/18 03:18:25;;;;;;;6.22;4.25;;;;;;;1.21;82.55;95261.03;4990592;28;20566;-80
2023/01/18 03:20:55;;;;;;;6.78;4.63;;;;;;;1.33;83.17;95260.13;4989974;28;20076;-80
2023/01/18 03:23:39;;;;;;;8.07;4.18;;;;;;;1.40;82.72;95256.69;4989696;28;20073;-80
2023/01/18 03:26:15;;;;;;;6.10;4.40;;;;;;;1.31;82.69;95248.41;4990070;28;20077;-80
2023/01/18 03:35:06;;;;;;;6.32;4.45;;;;;;;1.21;83.60;95269.56;4989668;28;20113;-80
2023/01/18 03:37:37;;;;;;;8.85;4.35;;;;;;;1.25;83.73;95269.91;4990126;28;20081;-80
2023/01/18 03:40:07;;;;;;;6.68;4.93;;;;;;;1.38;83.73;95275.00;4990579;28;20038;-80
2023/01/18 03:42:51;;;;;;;7.03;4.68;;;;;;;1.34;83.59;95271.25;4972269;28;20044;-80
2023/01/18 03:45:31;;;;;;;7.78;4.40;;;;;;;1.27;83.68;95273.88;4987832;28;20038;-80
2023/01/18 03:47:58;;;;;;;6.78;4.43;;;;;;;1.28;83.46;95272.88;4988664;28;20027;-80
2023/01/18 03:51:06;;;;;;;6.25;4.50;;;;;;;1.23;83.94;95275.28;4989968;28;20041;-80
2023/01/18 03:53:42;;;;;;;7.40;4.35;;;;;;;1.23;84.42;95285.63;4976482;28;20721;-80
2023/01/18 03:56:51;;;;;;;6.72;4.40;;;;;;;1.32;84.40;95286.16;4972037;28;20045;-80
2023/01/18 03:59:17;;;;;;;6.85;4.45;;;;;;;1.36;84.12;95292.47;4973973;28;20065;-80
2023/01/18 04:01:46;;;;;;;10.00;4.45;;;;;;;1.29;84.46;95282.19;4989339;28;20030;-80
2023/01/18 04:04:13;;;;;;;6.63;4.70;;;;;;;1.45;84.51;95293.03;4986266;28;20497;-80
2023/01/18 04:06:38;;;;;;;9.30;4.90;;;;;;;1.60;84.18;95293.47;4989606;28;20034;-81
2023/01/18 04:09:04;;;;;;;5.78;4.88;;;;;;;1.72;83.63;95291.78;4988701;28;20104;-80
2023/01/18 04:11:30;;;;;;;5.97;4.63;;;;;;;1.84;83.01;95295.25;4989653;28;20035;-80
2023/01/18 04:13:55;;;;;;;7.55;4.57;;;;;;;2.00;82.37;95299.09;4989223;28;20034;-80
2023/01/18 04:16:21;;;;;;;10.52;5.57;;;;;;;2.10;81.60;95296.81;4989591;28;20588;-81
2023/01/18 04:18:46;;;;;;;5.75;4.90;;;;;;;2.10;80.76;95298.59;4987928;28;20034;-80
2023/01/18 04:21:12;;;;;;;5.47;4.63;;;;;;;1.95;81.14;95295.56;4989043;28;20045;-80
2023/01/18 04:23:37;;;;;;;7.63;4.47;;;;;;;1.78;81.97;95300.47;4989180;28;20100;-81
2023/01/18 04:26:03;;;;;;;8.27;4.70;;;;;;;1.71;82.37;95292.78;4972598;28;20030;-80
2023/01/18 04:28:28;;;;;;;8.15;4.88;;;;;;;1.69;82.68;95297.38;4989731;28;20101;-81
2023/01/18 04:30:55;;;;;;;7.57;4.85;;;;;;;1.66;83.38;95302.97;4989197;28;20767;-81
2023/01/18 04:33:25;;;;;;;9.13;4.80;;;;;;;1.69;83.68;95299.97;4989373;28;20104;-80
2023/01/18 04:35:54;;;;;;;5.82;4.47;;;;;;;1.66;83.67;95302.97;4989492;28;20045;-80
2023/01/18 04:38:21;;;;;;;7.07;4.43;;;;;;;1.53;83.88;95305.66;4988543;28;20030;-80
2023/01/18 04:40:46;;;;;;;8.55;4.57;;;;;;;1.54;83.88;95302.88;4987248;28;20375;-81
2023/01/18 04:43:12;;;;;;;7.15;4.82;;;;;;;1.68;83.66;95300.97;4989274;28;20034;-80
2023/01/18 04:45:37;;;;;;;6.72;5.15;;;;;;;1.69;83.10;95302.56;4989200;28;20410;-80
2023/01/18 04:48:03;;;;;;;7.38;5.15;;;;;;;1.68;82.99;95308.75;4990485;28;20477;-80
2023/01/18 04:50:29;;;;;;;8.80;5.13;;;;;;;1.61;83.22;95310.56;4989323;28;20486;-81
2023/01/18 04:52:54;;;;;;;6.68;4.53;;;;;;;1.58;83.28;95308.41;4989510;28;20201;-80
2023/01/18 04:55:20;;;;;;;5.93;4.22;;;;;;;1.73;83.50;95311.44;4989166;28;20093;-81
2023/01/18 04:57:45;;;;;;;7.15;5.05;;;;;;;1.81;82.23;95300.88;4989446;28;20089;-80
2023/01/18 05:00:15;;;;;;;8.57;5.28;;;;;;;1.99;81.79;95312.25;4989402;28;20406;-80
2023/01/18 05:02:41;;;;;;;8.48;5.38;;;;;;;2.05;80.69;95313.97;4985967;28;20117;-80
2023/01/18 05:05:07;;;;;;;7.13;4.93;;;;;;;2.12;80.53;95322.44;5004548;28;20030;-81
2023/01/18 05:07:33;;;;;;;7.80;4.93;;;;;;;2.16;80.12;95331.38;4989254;28;20018;-81
2023/01/18 05:10:02;;;;;;;8.02;4.95;;;;;;;2.23;79.46;95334.66;4988985;28;20088;-80
2023/01/18 05:12:29;;;;;;;7.18;4.28;;;;;;;2.14;79.00;95330.78;4988372;28;20034;-80
2023/01/18 05:14:54;;;;;;;7.75;4.60;;;;;;;2.07;79.18;95343.75;4988817;28;20058;-80
2023/01/18 05:17:21;;;;;;;7.50;4.50;;;;;;;1.98;79.54;95337.31;4988704;28;20094;-81
2023/01/18 05:19:50;;;;;;;8.43;4.72;;;;;;;1.88;79.28;95342.94;4989844;28;20042;-81
2023/01/18 05:22:15;;;;;;;6.63;4.78;;;;;;;1.91;79.83;95354.63;4989063;28;20696;-80
2023/01/18 05:24:41;;;;;;;7.72;5.13;;;;;;;1.85;79.80;95351.09;4988733;28;20081;-81
2023/01/18 05:27:06;;;;;;;7.53;4.57;;;;;;;1.86;79.90;95357.88;4987597;28;20073;-80
2023/01/18 05:29:32;;;;;;;7.93;5.25;;;;;;;1.81;79.89;95362.88;4988799;28;20046;-81
2023/01/18 05:31:57;;;;;;;6.53;4.90;;;;;;;1.92;80.06;95366.59;4988384;28;20105;-80
2023/01/18 05:34:23;;;;;;;7.35;4.95;;;;;;;2.05;81.04;95370.84;4988517;28;20038;-80
2023/01/18 05:36:48;;;;;;;8.00;4.82;;;;;;;2.19;81.73;95368.91;4988955;28;20042;-80
2023/01/18 05:39:14;;;;;;;7.82;4.70;;;;;;;2.11;81.94;95375.16;4988499;28;20042;-80
2023/01/18 05:41:39;;;;;;;7.72;5.22;;;;;;;1.98;82.58;95367.50;4971468;28;20042;-80
2023/01/18 05:44:05;;;;;;;8.95;5.93;;;;;;;2.19;82.96;95387.03;4988733;28;20097;-81
2023/01/18 05:46:30;;;;;;;7.80;5.38;;;;;;;2.30;82.92;95381.16;4974221;28;20525;-81
2023/01/18 05:48:57;;;;;;;6.65;5.03;;;;;;;2.36;82.85;95386.25;4989073;28;20126;-81
2023/01/18 05:51:23;;;;;;;7.63;5.20;;;;;;;2.44;82.53;95386.97;4988395;28;20026;-81
2023/01/18 05:53:48;;;;;;;7.68;5.05;;;;;;;2.36;82.41;95383.69;4990971;28;20038;-80
2023/01/18 05:56:14;;;;;;;8.65;5.25;;;;;;;2.24;82.45;95385.38;4991836;28;20030;-80
2023/01/18 05:58:40;;;;;;;8.02;5.05;;;;;;;2.08;83.37;95393.66;4991980;28;20097;-80
2023/01/18 06:01:08;;;;;;;8.13;5.05;;;;;;;1.91;83.81;95390.03;4992188;28;20161;-80
2023/01/18 06:03:34;;;;;;;7.05;5.00;;;;;;;1.94;83.96;95397.38;4989520;28;20034;-80
2023/01/18 06:06:00;;;;;;;8.02;4.53;;;;;;;2.06;83.82;95400.84;4991660;28;20426;-80
2023/01/18 06:08:26;;;;;;;6.90;4.93;;;;;;;2.02;83.49;95407.44;4991925;28;20046;-80
2023/01/18 06:10:58;;;;;;;8.18;5.28;;;;;;;1.93;83.95;95406.94;4992163;28;20042;-81
2023/01/18 06:13:28;;;;;;;;;;;;;;;2.00;84.08;95401.72;4991281;28;20080;-81
2023/01/18 06:15:58;;;;;;;7.55;5.13;;;;;;;2.06;84.33;95401.66;4991569;28;19971;-81
2023/01/18 06:18:26;;;;;;;8.40;6.05;;;;;;;2.07;83.84;95405.81;4991126;28;20038;-81
2023/01/18 06:20:56;;;;;;;8.63;6.55;;;;;;;2.11;83.99;95406.19;4991467;28;20125;-80
2023/01/18 06:23:23;;;;;;;8.68;5.85;;;;;;;2.15;83.96;95409.91;4990909;28;20117;-80
2023/01/18 06:25:49;;;;;;;10.85;6.15;;;;;;;2.20;83.51;95417.84;4990744;28;20088;-81
2023/01/18 06:28:15;;;;;;;8.38;6.18;;;;;;;2.21;83.71;95414.25;4980410;28;20070;-80
2023/01/18 06:30:41;;;;;;;8.45;6.20;;;;;;;2.25;83.76;95418.00;4989534;28;20077;-80
2023/01/18 06:33:09;;;;;;;11.20;6.93;;;;;;;2.25;83.69;95419.78;4991583;28;20030;-81
2023/01/18 06:35:36;;;;;;;9.45;6.90;;;;;;;2.19;83.76;95421.44;4990128;28;20034;-81
2023/01/18 06:38:03;;;;;;;9.73;6.80;;;;;;;2.25;83.77;95428.34;4991774;28;20490;-81
2023/01/18 06:40:29;;;;;;;10.05;7.00;;;;;;;2.24;84.12;95431.94;5004685;28;20038;-81
2023/01/18 06:42:55;;;;;;;11.85;7.55;;;;;;;2.15;84.18;95448.72;4991681;28;20390;-80
2023/01/18 06:45:21;;;;;;;9.55;7.03;;;;;;;2.11;84.31;95432.84;4991064;28;20037;-81
2023/01/18 06:47:49;;;;;;;9.55;6.15;;;;;;;2.17;84.07;95441.53;4990566;28;20386;-81
2023/01/18 06:50:15;;;;;;;9.10;6.55;;;;;;;2.07;84.15;95448.97;4990556;28;20030;-81
2023/01/18 06:52:42;;;;;;;8.18;5.80;;;;;;;1.96;84.83;95453.03;4991573;28;20104;-80
2023/01/18 06:55:09;;;;;;;7.55;5.78;;;;;;;2.02;85.24;95461.72;4990596;28;20101;-81
2023/01/18 06:57:35;;;;;;;11.63;7.22;;;;;;;2.07;85.07;95464.50;4990653;28;20479;-80
2023/01/18 07:00:04;;;;;;;11.77;6.57;;;;;;;1.93;85.25;95463.81;4990559;28;20100;-81
2023/01/18 07:02:31;;;;;;;9.73;6.43;;;;;;;2.09;85.17;95465.84;4987241;28;20042;-81
2023/01/18 07:04:58;;;;;;;10.60;6.57;;;;;;;2.11;85.16;95468.25;4990586;28;20034;-80
2023/01/18 07:07:24;;;;;;;10.40;7.20;;;;;;;2.07;85.15;95473.03;4990685;28;20041;-81
2023/01/18 07:09:49;;;;;;;10.63;7.18;;;;;;;2.12;85.27;95478.38;4989258;28;20042;-81
2023/01/18 07:12:15;;;;;;;9.93;6.45;;;;;;;2.20;84.94;95484.28;4989502;28;20035;-81
2023/01/18 07:14:41;;;;;;;11.40;7.03;;;;;;;2.08;85.29;95487.53;4993112;28;20057;-81
2023/01/18 07:17:07;;;;;;;10.23;7.15;;;;;;;2.07;85.30;95495.50;5010656;28;20378;-81
2023/01/18 07:19:33;;;;;;;12.45;7.47;;;;;;;2.06;85.55;95499.09;5010091;28;20030;-80
2023/01/18 07:22:00;;;;;;;11.50;7.45;;;;;;;2.03;86.01;95502.09;5003044;28;20034;-81
2023/01/18 07:24:27;;;;;;;12.63;7.45;;;;;;;2.04;85.90;95512.25;5007691;28;20034;-81
2023/01/18 07:26:53;;;;;;;13.77;8.10;;;;;;;2.00;85.98;95520.63;5008444;28;20042;-81
2023/01/18 07:29:20;;;;;;;11.10;7.03;;;;;;;1.94;86.45;95517.06;5008623;28;20040;-80
2023/01/18 07:31:45;;;;;;;10.77;7.28;;;;;;;1.99;86.51;95521.63;5009846;28;20119;-81
2023/01/18 07:34:12;;;;;;;10.00;6.80;;;;;;;1.97;86.56;95531.38;5009567;28;20077;-81
2023/01/18 07:36:40;;;;;;;12.00;7.28;;;;;;;1.96;86.58;95529.78;5024168;28;20044;-81
2023/01/18 07:39:07;;;;;;;13.02;7.45;;;;;;;2.06;86.74;95535.31;5008661;28;20042;-81
2023/01/18 07:41:33;;;;;;;11.55;7.05;;;;;;;2.10;86.73;95531.31;5009199;28;20409;-81
2023/01/18 07:44:00;;;;;;;10.10;6.95;;;;;;;2.28;86.33;95538.31;5008672;28;20037;-81
2023/01/18 07:46:25;;;;;;;10.85;7.10;;;;;;;2.37;85.86;95542.25;5008965;28;20099;-81
2023/01/18 07:48:51;;;;;;;9.98;7.35;;;;;;;2.32;85.62;95545.47;5009266;28;20030;-81
2023/01/18 07:51:20;;;;;;;11.73;7.40;;;;;;;2.15;85.68;95540.00;5008684;28;20034;-81
2023/01/18 07:53:46;;;;;;;11.23;7.55;;;;;;;2.30;86.01;95551.84;5008747;28;20030;-81
2023/01/18 07:56:16;;;;;;;11.38;7.22;;;;;;;2.37;85.97;95548.22;5008663;28;20045;-81
2023/01/18 07:58:43;;;;;;;9.85;7.20;;;;;;;2.45;85.48;95548.94;5007533;28;20108;-81
2023/01/18 08:01:19;;;;;;;13.23;7.07;;;;;;;2.55;85.30;95564.81;5039068;28;20092;-81
2023/01/18 08:03:47;;;;;;;10.05;7.03;;;;;;;2.61;84.81;95564.75;5006043;28;20033;-81
2023/01/18 08:06:15;;;;;;;9.35;6.72;;;;;;;2.50;84.34;95562.06;5008013;28;20049;-81
2023/01/18 08:08:42;;;;;;;10.10;6.43;;;;;;;2.65;84.29;95575.50;5008557;28;20026;-81
2023/01/18 08:11:08;;;;;;;9.18;6.63;;;;;;;2.63;83.75;95573.09;5008888;28;20049;-80
2023/01/18 08:13:34;;;;;;;9.13;6.15;;;;;;;2.49;83.95;95576.00;5008871;28;20046;-81
2023/01/18 08:16:04;;;;;;;11.48;6.93;;;;;;;2.36;84.23;95580.25;4992659;28;20061;-81
2023/01/18 08:18:30;;;;;;;10.40;6.55;;;;;;;2.40;84.67;95584.03;4989466;28;20034;-80
2023/01/18 08:20:56;;;;;;;10.15;6.72;;;;;;;2.17;85.04;95577.81;4988569;28;20052;-81
2023/01/18 08:23:22;;;;;;;8.93;5.65;;;;;;;2.13;85.70;95592.94;4989146;28;20038;-81
2023/01/18 08:25:48;;;;;;;11.15;6.30;;;;;;;2.18;86.03;95590.53;4978825;28;20129;-81
2023/01/18 08:28:14;;;;;;;10.93;6.53;;;;;;;2.23;86.00;95588.13;4988802;28;20030;-80
2023/01/18 08:30:44;;;;;;;11.73;6.35;;;;;;;2.19;86.09;95591.31;4989116;28;20062;-81
2023/01/18 08:33:10;;;;;;;10.23;5.80;;;;;;;2.24;86.44;95592.28;4988071;28;20604;-81
2023/01/18 08:35:45;;;;;;;12.32;6.88;;;;;;;2.39;86.29;95600.53;4988576;28;20040;-81
2023/01/18 08:38:14;;;;;;;11.52;6.90;;;;;;;2.45;85.97;95600.69;4988690;28;20042;-81
2023/01/18 08:40:41;;;;;;;11.77;8.27;;;;;;;2.28;85.61;95606.38;4970728;28;20378;-81
2023/01/18 08:43:07;;;;;;;12.55;7.78;;;;;;;1.84;86.60;95610.56;4988659;28;20494;-81
2023/01/18 08:45:33;;;;;;;13.77;7.43;;;;;;;1.91;87.73;95612.31;4988360;28;20073;-81
2023/01/18 08:48:10;;;;;;;15.40;9.45;;;;;;;1.65;88.78;95608.84;4987456;28;20085;-80
2023/01/18 08:50:38;;;;;;;13.85;7.47;;;;;;;1.68;89.89;95620.56;4988401;28;20050;-81
2023/01/18 08:53:04;;;;;;;14.30;8.60;;;;;;;1.57;90.59;95629.75;4988630;28;20049;-81
2023/01/18 08:55:30;;;;;;;13.23;8.70;;;;;;;1.53;90.72;95624.19;4988560;28;20073;-81
2023/01/18 08:57:57;;;;;;;13.25;8.30;;;;;;;1.67;90.96;95635.28;4987665;28;20037;-81
2023/01/18 09:00:27;;;;;;;21.05;8.25;;;;;;;1.61;90.66;95633.50;4987948;28;20033;-81
2023/01/18 09:02:53;;;;;;;14.63;9.05;;;;;;;1.48;90.94;95639.50;4985311;28;20038;-81
2023/01/18 09:05:19;;;;;;;14.38;9.23;;;;;;;1.47;92.06;95637.13;4988160;28;20038;-81
2023/01/18 09:07:46;;;;;;;13.70;9.05;;;;;;;1.42;92.60;95642.88;4987234;28;20042;-81
2023/01/18 09:10:13;;;;;;;14.85;9.68;;;;;;;1.34;92.14;95640.53;4988805;28;20105;-81
2023/01/18 09:12:39;;;;;;;15.20;9.77;;;;;;;1.41;92.22;95643.91;4986764;28;20441;-81
2023/01/18 09:15:05;;;;;;;14.13;10.25;;;;;;;1.37;92.32;95649.66;4988628;28;20043;-81
2023/01/18 09:17:31;;;;;;;14.88;9.35;;;;;;;1.48;92.26;95661.97;4988366;28;20050;-81
2023/01/18 09:19:56;;;;;;;15.45;10.10;;;;;;;1.46;92.20;95659.59;4988275;28;20026;-81
2023/01/18 09:22:23;;;;;;;16.92;10.55;;;;;;;1.41;92.09;95661.97;5003947;28;20030;-81
2023/01/18 09:24:49;;;;;;;16.85;10.15;;;;;;;1.45;92.49;95660.59;4987572;28;20046;-82
2023/01/18 09:27:15;;;;;;;19.55;11.52;;;;;;;1.32;92.16;95669.16;4990566;28;20030;-81
2023/01/18 09:29:41;;;;;;;18.33;12.40;;;;;;;1.25;92.35;95667.56;4991980;28;20157;-81
2023/01/18 09:32:08;;;;;;;18.58;11.25;;;;;;;1.31;93.28;95672.69;4992492;28;20522;-81
2023/01/18 09:34:35;;;;;;;16.88;10.63;;;;;;;1.53;93.30;95675.06;4989609;28;20034;-81
2023/01/18 09:37:01;;;;;;;13.65;9.68;;;;;;;1.62;92.16;95691.97;4989427;28;20533;-81
2023/01/18 09:39:26;;;;;;;15.30;10.80;;;;;;;1.42;90.99;95691.19;4990665;28;20045;-82
2023/01/18 09:42:00;;;;;;;13.15;8.60;;;;;;;1.34;91.43;95702.50;4991947;28;20042;-81
2023/01/18 09:44:35;;;;;;;15.32;9.32;;;;;;;1.50;91.70;95706.47;4990932;28;20030;-81
2023/01/18 09:47:18;;;;;;;12.65;9.05;;;;;;;1.55;91.02;95711.81;4989720;28;20105;-82
2023/01/18 09:50:01;;;;;;;16.80;11.40;;;;;;;1.40;91.42;95716.41;4990223;28;20045;-82
2023/01/18 09:52:29;;;;;;;13.18;9.10;;;;;;;1.57;91.67;95717.59;4992983;28;20049;-81
2023/01/18 09:55:27;;;;;;;12.85;9.80;;;;;;;1.40;100.00;95729.34;4991497;28;20057;-81
2023/01/18 09:58:44;;;;;;;14.65;9.30;;;;;;;1.50;100.00;95733.09;4972770;28;20531;-81
2023/01/18 10:01:18;;;;;;;12.98;8.30;;;;;;;1.44;100.00;95733.09;4911933;29;20043;-81
2023/01/18 10:03:57;;;;;;;12.30;8.55;;;;;;;1.36;97.30;95736.69;4988056;28;20046;-81
2023/01/18 10:06:36;;;;;;;16.00;10.15;;;;;;;1.18;95.44;95746.81;4990438;28;20557;-81
2023/01/18 10:09:14;;;;;;;13.30;9.38;;;;;;;1.16;95.17;95757.34;4990523;28;20149;-81
2023/01/18 10:12:11;;;;;;;16.88;10.80;;;;;;;1.07;94.84;95755.94;4990685;28;20133;-81
2023/01/18 10:15:00;;;;;;;15.40;10.30;;;;;;;1.07;94.89;95756.72;4969790;28;20058;-81
2023/01/18 10:17:38;;;;;;;14.13;9.35;;;;;;;1.17;95.31;95763.28;4991384;28;20488;-81
2023/01/18 10:20:38;;;;;;;13.02;8.35;;;;;;;1.25;94.77;95763.88;4990338;28;20034;-81
2023/01/18 10:23:23;;;;;;;12.75;8.32;;;;;;;1.16;94.28;95766.88;4990503;28;20069;-81
2023/01/18 10:26:06;;;;;;;14.45;10.80;;;;;;;1.03;93.61;95780.56;4990680;28;20516;-81
2023/01/18 10:29:14;;;;;;;13.05;9.15;;;;;;;1.12;94.02;95776.78;4988816;28;20558;-81
2023/01/18 10:32:03;;;;;;;12.35;9.75;;;;;;;1.05;93.50;95774.19;4983507;28;20048;-80
2023/01/18 10:34:46;;;;;;;11.73;7.65;;;;;;;1.02;93.59;95776.38;4988034;28;20035;-81
2023/01/18 10:37:37;;;;;;;14.32;9.93;;;;;;;0.98;94.17;95781.16;4991122;28;20038;-81
2023/01/18 10:40:09;;;;;;;16.10;9.18;;;;;;;1.13;94.68;95780.16;4989634;28;20073;-81
2023/01/18 10:42:50;;;;;;;13.55;9.07;;;;;;;1.22;93.82;95787.53;4939193;28;20084;-82
2023/01/18 10:45:25;;;;;;;13.85;9.68;;;;;;;1.17;92.82;95794.28;4989950;28;20114;-81
2023/01/18 10:47:54;;;;;;;13.20;8.48;;;;;;;1.10;92.70;95799.44;4990152;28;20049;-81
2023/01/18 10:50:33;;;;;;;11.75;8.00;;;;;;;1.32;92.64;95800.88;4989030;28;20033;-81
2023/01/18 10:53:19;;;;;;;13.25;7.95;;;;;;;1.34;91.49;95796.28;4990712;28;20049;-81
2023/01/18 10:56:17;;;;;;;13.60;8.55;;;;;;;1.25;91.83;95807.00;4990733;28;20035;-81
2023/01/18 10:58:49;;;;;;;10.50;7.43;;;;;;;1.37;91.59;95810.56;4989613;28;20035;-81
2023/01/18 11:01:23;;;;;;;9.38;6.60;;;;;;;1.37;90.92;95802.03;4947451;28;20104;-81
2023/01/18 11:03:54;;;;;;;11.20;7.05;;;;;;;1.44;90.51;95826.06;4993396;28;20124;-81
2023/01/18 11:06:22;;;;;;;9.77;7.40;;;;;;;1.26;90.33;95816.31;4988871;28;20101;-81
2023/01/18 11:08:49;;;;;;;9.52;6.88;;;;;;;1.23;90.65;95820.09;4990580;28;20034;-81
2023/01/18 11:14:30;;;;;;;8.05;6.22;;;;;;;1.15;91.35;95822.09;4989547;28;20088;-81
2023/01/18 11:17:10;;;;;;;8.95;6.63;;;;;;;1.17;91.58;95831.22;4989714;28;20117;-80
2023/01/18 11:19:37;;;;;;;8.45;6.40;;;;;;;1.27;92.04;95830.84;4989483;28;20042;-81
2023/01/18 11:22:12;;;;;;;10.00;5.93;;;;;;;1.41;92.12;95839.41;4989846;28;20038;-80
2023/01/18 11:24:38;;;;;;;8.00;6.00;;;;;;;1.35;91.71;95840.97;4989658;28;20493;-81
2023/01/18 11:27:21;;;;;;;7.45;5.50;;;;;;;1.31;91.16;95837.19;4988090;28;20049;-81
2023/01/18 11:29:48;;;;;;;8.55;5.75;;;;;;;1.30;90.65;95848.53;4989356;28;20069;-81
2023/01/18 11:32:31;;;;;;;7.90;6.03;;;;;;;1.33;91.08;95851.50;4990311;28;20042;-81
2023/01/18 11:34:58;;;;;;;6.32;4.95;;;;;;;1.34;90.86;95855.69;4985736;28;20058;-81
2023/01/18 11:37:38;;;;;;;9.88;6.00;;;;;;;1.36;90.61;95859.84;4989795;28;20053;-81
2023/01/18 11:40:25;;;;;;;6.88;5.10;;;;;;;1.50;91.04;95866.63;4989511;28;21007;-81
2023/01/18 11:43:02;;;;;;;8.02;5.35;;;;;;;1.38;90.40;95860.44;4987356;28;20490;-81
2023/01/18 11:45:34;;;;;;;8.15;6.38;;;;;;;1.30;90.88;95864.00;4989419;28;20042;-80
2023/01/18 11:48:32;;;;;;;8.25;5.68;;;;;;;1.38;90.25;95871.59;4987858;28;20034;-81
2023/01/18 11:51:16;;;;;;;7.18;5.30;;;;;;;1.31;90.09;95868.97;4989380;28;20038;-81
2023/01/18 11:53:59;;;;;;;6.95;5.75;;;;;;;1.40;89.80;95879.94;4988934;28;20034;-81
2023/01/18 11:56:38;;;;;;;7.25;5.97;;;;;;;1.39;89.59;95880.13;4988072;28;20042;-80
2023/01/18 11:59:14;;;;;;;8.68;5.70;;;;;;;1.49;90.27;95889.06;4989238;28;20049;-81
2023/01/18 12:02:04;;;;;;;8.30;5.53;;;;;;;1.48;89.71;95884.91;4987996;28;20382;-81
2023/01/18 12:04:57;;;;;;;11.48;5.70;;;;;;;1.53;89.69;95898.03;4988635;28;20038;-81
2023/01/18 12:07:46;;;;;;;6.55;5.35;;;;;;;1.63;89.38;95897.66;4987790;28;20112;-81
2023/01/18 12:10:22;;;;;;;8.13;5.63;;;;;;;1.68;89.02;95910.78;4988020;28;20414;-81
2023/01/18 12:13:28;;;;;;;8.63;5.70;;;;;;;1.72;88.32;95913.75;4988740;28;20034;-81
2023/01/18 12:16:22;;;;;;;9.38;5.88;;;;;;;1.67;88.71;95919.50;4988311;28;20126;-80
2023/01/18 12:18:57;;;;;;;8.32;5.65;;;;;;;1.73;89.16;95923.91;4971255;28;20030;-81
2023/01/18 12:22:30;;;;;;;8.55;6.03;;;;;;;1.61;88.52;95923.69;4988126;28;20140;-81
2023/01/18 12:25:20;;;;;;;9.55;6.75;;;;;;;1.36;89.12;95924.44;4988949;28;20389;-81
2023/01/18 12:28:27;;;;;;;7.90;6.13;;;;;;;1.30;90.14;95923.41;4987712;28;20041;-81
2023/01/18 12:31:39;;;;;;;9.07;6.85;;;;;;;1.21;91.99;95935.72;4989088;28;20394;-80
2023/01/18 12:34:21;;;;;;;9.30;5.97;;;;;;;1.41;93.43;95940.13;4962132;28;20168;-81